aviador You're here:

OMAL Decoded Metar

AL AIN in UNITED ARAB EMIRATES
Report Time2017-11-24 09:00:00
UTC Time2017-11-24 09:09:45
Flight Rules vfr VFR
Wind200° at 06 kt
W.Decomp.*RWY 19: 5.9 kt HW 0.9 kt RCW
W.Rank200° ranks 29
Current wind is below 200° avg. (7.1)
Visibility9999 m
Phenomena:N/A
Clouds:N/A
Expected CloudBase > 6,400 ft AGL from Temp-Dew spread
CeilingNone
Temp28°C (ISA +15)
Dew Point12°C (37% RH)
Heat Index27.5°C
AAT26.4°C
QNH1017 hPa
Density Alt2,618 ft
Elevation869 ft
Report Wrong Elevation
Raw Report
METAR OMAL 240900Z 20006KT 170V240 CAVOK 28/12 Q1017 BECMG 28008KT=

Extra information for OMAL:More info

Metar Taf Metar & Taf Last 4 Metars F.Rules Stats Wind Profile Meteogram Temp Stats Airport Information Weather charts Add Link Nearby VenuesMetar ALERT Operation Metar Decoded Social comments